createdAt,value
2022-11-16T05:16:07.822Z,16.27
2022-11-16T05:18:34.785Z,13.25
2022-11-16T05:21:03.895Z,17.20
2022-11-16T05:23:54.257Z,15.55
2022-11-16T05:26:23.004Z,20.05
2022-11-16T05:28:50.822Z,20.80
2022-11-16T05:31:17.413Z,17.00
2022-11-16T05:33:44.343Z,19.08
2022-11-16T05:36:12.126Z,19.15
2022-11-16T05:38:39.619Z,17.67
2022-11-16T05:41:06.294Z,20.80
2022-11-16T05:43:38.278Z,17.17
2022-11-16T05:46:11.926Z,16.80
2022-11-16T05:48:38.943Z,18.30
2022-11-16T05:51:06.211Z,14.68
2022-11-16T05:53:34.146Z,19.52
2022-11-16T05:56:01.053Z,18.98
2022-11-16T05:58:28.716Z,19.73
2022-11-16T06:00:58.147Z,20.55
2022-11-16T06:03:24.812Z,17.70
2022-11-16T06:05:55.543Z,16.80
2022-11-16T06:08:24.575Z,23.20
2022-11-16T06:10:53.120Z,20.80
2022-11-16T06:13:19.710Z,17.02
2022-11-16T06:15:52.291Z,17.95
2022-11-16T06:18:19.195Z,23.05
2022-11-16T06:20:47.683Z,20.90
2022-11-16T06:23:14.236Z,20.38
2022-11-16T06:25:40.915Z,20.98
2022-11-16T06:28:09.700Z,22.45
2022-11-16T06:30:38.446Z,22.92
2022-11-16T06:33:06.608Z,19.02
2022-11-16T06:35:34.198Z,24.17
2022-11-16T06:38:01.059Z,20.75
2022-11-16T06:40:28.581Z,21.42
2022-11-16T06:42:57.080Z,20.83
2022-11-16T06:45:24.422Z,23.17
2022-11-16T06:47:54.548Z,26.30
2022-11-16T06:50:27.438Z,22.55
2022-11-16T06:52:55.181Z,21.17
2022-11-16T06:55:22.900Z,21.92
2022-11-16T06:57:51.931Z,21.08
2022-11-16T07:00:19.167Z,22.75
2022-11-16T07:02:47.345Z,20.25
2022-11-16T07:05:17.294Z,20.05
2022-11-16T07:07:45.107Z,23.23
2022-11-16T07:10:12.036Z,20.73
2022-11-16T07:12:38.663Z,22.00
2022-11-16T07:15:10.719Z,16.60
2022-11-16T07:17:45.143Z,28.05
2022-11-16T07:20:12.099Z,26.42
2022-11-16T07:22:39.440Z,25.90
2022-11-16T07:25:06.583Z,22.45
2022-11-16T07:27:49.221Z,22.17
2022-11-16T07:30:16.096Z,18.88
2022-11-16T07:32:57.706Z,17.88
2022-11-16T07:35:44.207Z,18.52
2022-11-16T07:38:15.387Z,20.17
2022-11-16T07:40:45.740Z,20.65
2022-11-16T07:43:15.564Z,19.23
2022-11-16T07:46:45.396Z,17.58
2022-11-16T07:48:52.110Z,20.77
2022-11-16T07:51:38.877Z,21.13
2022-11-16T07:54:17.989Z,23.45
2022-11-16T07:56:45.080Z,17.00
2022-11-16T07:59:11.634Z,18.48
2022-11-16T08:01:42.949Z,16.48
2022-11-16T08:04:11.190Z,18.17
2022-11-16T08:06:38.346Z,18.05
2022-11-16T08:09:05.052Z,17.23
2022-11-16T08:11:34.399Z,17.52
2022-11-16T08:14:00.883Z,18.58
2022-11-16T08:16:28.013Z,18.00
2022-11-16T08:19:04.663Z,12.73
2022-11-16T08:21:31.172Z,19.42
2022-11-16T08:23:58.871Z,16.45
2022-11-16T08:26:30.647Z,15.85
2022-11-16T08:29:03.252Z,14.23
2022-11-16T08:31:39.583Z,14.05
2022-11-16T08:34:11.358Z,8.90
2022-11-16T08:36:41.255Z,7.28
2022-11-16T08:39:08.637Z,5.82
2022-11-16T08:41:37.550Z,3.78
2022-11-16T08:44:08.222Z,4.25
2022-11-16T08:46:38.158Z,3.53
2022-11-16T08:49:16.704Z,3.35
2022-11-16T08:51:43.232Z,5.40
2022-11-16T08:54:10.327Z,3.63
2022-11-16T08:56:38.898Z,2.40
2022-11-16T08:59:05.419Z,6.53
2022-11-16T09:01:33.002Z,8.38
2022-11-16T09:04:00.295Z,3.95
2022-11-16T09:06:28.175Z,3.75
2022-11-16T09:08:56.474Z,5.35
2022-11-16T09:11:24.794Z,2.70
2022-11-16T09:13:53.150Z,5.80
2022-11-16T09:16:21.039Z,4.65
2022-11-16T09:18:49.608Z,7.45
2022-11-16T09:21:21.868Z,6.75
2022-11-16T09:23:49.156Z,2.58
2022-11-16T09:26:18.845Z,4.40
2022-11-16T09:28:47.589Z,2.17
2022-11-16T09:31:17.581Z,3.92
2022-11-16T09:33:47.671Z,2.70
2022-11-16T09:36:15.688Z,4.38
2022-11-16T09:42:06.554Z,3.80
2022-11-16T09:44:48.885Z,3.92
2022-11-16T09:47:21.938Z,5.35
2022-11-16T09:49:58.139Z,3.55
2022-11-16T09:52:37.429Z,4.75
2022-11-16T09:55:22.092Z,3.05
2022-11-16T09:57:51.462Z,4.38
2022-11-16T10:00:25.094Z,4.53
2022-11-16T10:03:05.653Z,6.15
2022-11-16T10:05:57.004Z,5.85
2022-11-16T10:08:41.884Z,2.80
2022-11-16T10:11:27.323Z,3.38
2022-11-16T10:14:15.509Z,4.07
2022-11-16T10:16:50.842Z,7.50
2022-11-16T10:19:46.666Z,7.57
2022-11-16T10:22:56.523Z,3.50
2022-11-16T10:25:32.883Z,5.30
2022-11-16T10:28:34.396Z,4.32
2022-11-16T10:31:50.943Z,9.50
2022-11-16T10:34:25.171Z,5.93
2022-11-16T10:36:56.386Z,3.70
2022-11-16T10:39:24.899Z,4.90
2022-11-16T10:41:51.653Z,9.05
2022-11-16T10:44:36.228Z,5.07
2022-11-16T10:47:11.903Z,5.82
2022-11-16T10:50:00.600Z,3.00
2022-11-16T10:52:27.995Z,3.88
2022-11-16T10:54:54.696Z,4.05
2022-11-16T10:57:23.735Z,7.22
2022-11-16T11:00:00.239Z,9.07
2022-11-16T11:02:35.141Z,7.95
2022-11-16T11:05:06.552Z,2.55
2022-11-16T11:07:36.151Z,10.18
2022-11-16T11:10:03.467Z,3.88
2022-11-16T11:12:38.994Z,6.90
2022-11-16T11:15:05.966Z,6.22
2022-11-16T11:17:35.405Z,2.55
2022-11-16T11:20:19.536Z,4.50
2022-11-16T11:22:59.392Z,4.18
2022-11-16T11:25:38.609Z,4.45
2022-11-16T11:28:16.701Z,1.95
2022-11-16T11:31:01.363Z,5.65
2022-11-16T11:33:35.322Z,3.75
2022-11-16T11:36:20.769Z,8.10
2022-11-16T11:39:05.916Z,4.20
2022-11-16T11:41:39.168Z,6.20
2022-11-16T11:44:12.504Z,5.50
2022-11-16T11:49:38.284Z,4.85
2022-11-16T11:54:45.982Z,5.45
2022-11-16T11:57:20.480Z,2.63
2022-11-16T11:59:48.005Z,8.65
2022-11-16T12:02:52.340Z,7.60
2022-11-16T12:05:50.272Z,4.90
2022-11-16T12:08:25.782Z,9.95
2022-11-16T12:11:04.671Z,6.63
2022-11-16T12:13:51.033Z,4.15
2022-11-16T12:16:29.587Z,3.53
2022-11-16T12:19:33.061Z,7.13
2022-11-16T12:22:14.919Z,4.63
2022-11-16T12:24:57.091Z,4.97
2022-11-16T12:27:37.277Z,5.13
2022-11-16T12:30:21.021Z,7.13
2022-11-16T12:33:04.956Z,8.45
2022-11-16T12:35:52.023Z,2.50
2022-11-16T12:39:20.442Z,3.55
2022-11-16T12:41:58.044Z,5.50
2022-11-16T12:44:52.218Z,5.47
2022-11-16T12:47:47.339Z,3.90
2022-11-16T12:50:38.997Z,2.38
2022-11-16T12:54:01.262Z,7.25
2022-11-16T12:56:54.886Z,4.07
2022-11-16T12:59:52.324Z,3.97
2022-11-16T13:02:54.129Z,4.78
2022-11-16T13:05:40.041Z,6.63
2022-11-16T13:08:19.221Z,8.30
2022-11-16T13:10:50.904Z,9.60
2022-11-16T13:13:37.423Z,5.00
2022-11-16T13:16:06.427Z,8.63
2022-11-16T13:18:35.427Z,2.30
2022-11-16T13:21:11.493Z,5.45
2022-11-16T13:23:52.231Z,4.43
2022-11-16T13:26:54.165Z,7.82
2022-11-16T13:29:37.551Z,3.72
2022-11-16T13:32:29.022Z,10.35
2022-11-16T13:34:56.102Z,6.90
2022-11-16T13:37:37.940Z,3.53
2022-11-16T13:40:04.558Z,3.28
2022-11-16T13:42:38.209Z,3.22
2022-11-16T13:45:16.635Z,5.85
2022-11-16T13:47:55.679Z,4.88
2022-11-16T13:50:37.568Z,3.22
2022-11-16T13:56:02.898Z,4.03
2022-11-16T13:58:32.008Z,6.18
2022-11-16T14:01:02.628Z,13.25
2022-11-16T14:03:40.329Z,3.33
2022-11-16T14:06:29.487Z,5.78
2022-11-16T14:08:57.735Z,4.07
2022-11-16T14:11:31.921Z,4.43
2022-11-16T14:14:01.176Z,9.00
2022-11-16T14:16:29.027Z,9.45
2022-11-16T14:19:01.252Z,6.28
2022-11-16T14:21:53.750Z,4.43
2022-11-16T14:24:26.214Z,2.97
2022-11-16T14:27:17.618Z,10.00
2022-11-16T14:30:31.090Z,8.05
2022-11-16T14:32:58.173Z,11.50
2022-11-16T14:35:38.893Z,15.02
2022-11-16T14:38:41.777Z,5.00
2022-11-16T14:41:23.470Z,4.43
2022-11-16T14:43:58.979Z,4.97
2022-11-16T14:46:26.192Z,3.25
2022-11-16T14:48:55.979Z,8.13
2022-11-16T14:51:26.699Z,9.25
2022-11-16T14:53:59.200Z,1.67
2022-11-16T14:56:25.682Z,4.82
2022-11-16T14:58:59.573Z,3.30
2022-11-16T15:04:04.296Z,4.82
2022-11-16T15:06:40.085Z,7.50
2022-11-16T15:09:06.648Z,2.95
2022-11-16T15:11:56.271Z,3.25
2022-11-16T15:14:26.932Z,5.22
2022-11-16T15:16:55.121Z,3.70
2022-11-16T15:19:22.319Z,5.22
2022-11-16T15:21:58.403Z,5.18
2022-11-16T15:24:32.046Z,3.83
2022-11-16T15:27:36.797Z,8.02
2022-11-16T15:30:14.752Z,3.65
2022-11-16T15:32:47.794Z,6.18
2022-11-16T15:35:28.545Z,4.40
2022-11-16T15:38:05.272Z,3.42
2022-11-16T15:40:33.242Z,7.05
2022-11-16T15:43:02.860Z,3.38
2022-11-16T15:45:30.310Z,4.18
2022-11-16T15:48:00.515Z,7.38
2022-11-16T15:50:27.979Z,3.20
2022-11-16T15:52:55.574Z,6.90
2022-11-16T15:55:31.802Z,3.70
2022-11-16T15:58:12.065Z,3.00
2022-11-16T16:00:38.783Z,5.35
2022-11-16T16:03:27.110Z,4.38
2022-11-16T16:05:54.875Z,5.40
2022-11-16T16:08:28.551Z,3.97
2022-11-16T16:11:09.110Z,8.52
2022-11-16T16:13:42.023Z,3.65
2022-11-16T16:16:31.563Z,5.53
2022-11-16T16:19:03.815Z,5.72
2022-11-16T16:21:46.220Z,3.50
2022-11-16T16:24:38.369Z,3.05
2022-11-16T16:27:11.866Z,3.33
2022-11-16T16:29:38.429Z,4.65
2022-11-16T16:32:05.208Z,6.25
2022-11-16T16:34:31.643Z,4.07
2022-11-16T16:36:58.124Z,3.50
2022-11-16T16:39:24.586Z,5.68
2022-11-16T16:41:51.218Z,8.10
2022-11-16T16:44:17.970Z,6.55
2022-11-16T16:46:44.470Z,12.57
2022-11-16T16:49:10.972Z,6.32
2022-11-16T16:51:37.419Z,7.03
2022-11-16T16:54:03.905Z,9.93
2022-11-16T16:56:30.459Z,6.82
2022-11-16T16:59:48.376Z,9.13
2022-11-16T17:06:18.698Z,6.18
2022-11-16T17:08:45.535Z,8.35
2022-11-16T17:11:14.762Z,8.18
2022-11-16T17:13:41.934Z,6.63
2022-11-16T17:16:08.506Z,6.25
2022-11-16T17:18:35.029Z,7.10
2022-11-16T17:21:09.358Z,7.32
2022-11-16T17:23:36.805Z,10.43
2022-11-16T17:26:08.359Z,7.57
2022-11-16T17:28:35.288Z,8.27
2022-11-16T17:31:06.837Z,4.72
2022-11-16T17:33:39.570Z,6.80
2022-11-16T17:36:07.801Z,9.75
2022-11-16T17:38:35.147Z,10.27
2022-11-16T17:41:12.662Z,12.45
2022-11-16T17:44:14.034Z,7.97
2022-11-16T17:50:24.064Z,5.55
2022-11-16T17:52:50.622Z,8.70
2022-11-16T17:55:17.178Z,7.20
2022-11-16T17:57:43.718Z,7.72
2022-11-16T18:00:10.979Z,9.38
2022-11-16T18:02:40.592Z,7.40
2022-11-16T18:05:07.491Z,7.32
2022-11-16T18:07:38.413Z,10.27
2022-11-16T18:10:19.379Z,5.85
2022-11-16T18:12:46.482Z,9.20
2022-11-16T18:15:27.868Z,10.98
2022-11-16T18:18:02.878Z,7.05
2022-11-16T18:20:36.008Z,13.30
2022-11-16T18:23:06.017Z,12.67
2022-11-16T18:25:35.244Z,8.25
2022-11-16T18:28:04.588Z,6.65
2022-11-16T18:30:33.388Z,11.30
2022-11-16T18:36:13.362Z,13.03
2022-11-16T19:03:54.418Z,14.02
2022-11-16T19:06:35.105Z,15.35
2022-11-16T19:09:10.398Z,10.60
2022-11-16T19:11:42.700Z,7.35
2022-11-16T19:14:24.845Z,7.47
2022-11-16T19:24:36.622Z,8.77
2022-11-16T19:35:30.775Z,9.07
2022-11-16T20:05:29.917Z,9.57
2022-11-16T20:07:49.521Z,11.15
2022-11-16T20:10:25.498Z,9.23
2022-11-16T20:12:52.195Z,8.18
2022-11-16T20:18:26.547Z,5.50
2022-11-16T20:22:24.857Z,12.73
2022-11-16T20:25:05.812Z,12.40
2022-11-16T20:28:28.832Z,12.43
2022-11-16T20:31:28.179Z,9.80
2022-11-16T20:34:14.593Z,10.10
2022-11-16T20:37:52.277Z,9.43
2022-11-16T20:47:28.811Z,7.82
2022-11-16T20:51:01.631Z,11.25
2022-11-16T20:53:29.030Z,8.02
2022-11-16T20:55:58.207Z,9.43
2022-11-16T20:58:30.968Z,15.77
2022-11-16T21:01:02.851Z,9.70
2022-11-16T21:03:33.394Z,8.65
2022-11-16T21:06:10.310Z,7.43
2022-11-16T21:08:53.924Z,10.02
2022-11-16T21:11:57.268Z,8.07
2022-11-16T21:14:28.359Z,10.18
2022-11-16T21:16:58.269Z,11.30
2022-11-16T21:19:32.977Z,9.82
2022-11-16T21:22:01.176Z,8.57
2022-11-16T21:24:31.173Z,7.13
2022-11-16T21:27:01.408Z,4.88
2022-11-16T21:29:36.703Z,5.60
2022-11-16T21:32:09.553Z,11.95
2022-11-16T21:34:40.164Z,7.60
2022-11-16T21:37:16.117Z,5.13
2022-11-16T21:39:48.321Z,6.60
2022-11-16T21:42:36.376Z,7.63
2022-11-16T21:45:17.485Z,6.70
2022-11-16T21:48:42.395Z,6.80
2022-11-16T21:58:08.282Z,7.53
2022-11-16T22:00:41.408Z,7.97
2022-11-16T22:04:36.138Z,7.88
2022-11-16T22:07:50.292Z,7.32
2022-11-16T22:11:00.271Z,10.90
2022-11-16T22:13:34.819Z,11.43
2022-11-16T22:17:01.667Z,8.95
2022-11-16T22:20:07.447Z,8.30
2022-11-16T22:32:42.857Z,6.50
2022-11-16T22:46:17.175Z,11.15
2022-11-16T22:49:42.254Z,8.85
